sensor_id;sensor_type;location;lat;lon;timestamp;temperature;humidity
23102;DHT22;11720;51.214;22.574;2023-05-16T00:00:03;12.20;99.90
23102;DHT22;11720;51.214;22.574;2023-05-16T00:02:34;12.10;99.90
23102;DHT22;11720;51.214;22.574;2023-05-16T00:05:04;12.10;99.90
23102;DHT22;11720;51.214;22.574;2023-05-16T00:07:33;12.10;99.90
23102;DHT22;11720;51.214;22.574;2023-05-16T00:09:59;12.10;99.90
23102;DHT22;11720;51.214;22.574;2023-05-16T00:15:47;12.00;99.90
23102;DHT22;11720;51.214;22.574;2023-05-16T00:18:12;12.00;99.90
23102;DHT22;11720;51.214;22.574;2023-05-16T00:20:41;12.00;99.90
23102;DHT22;11720;51.214;22.574;2023-05-16T00:23:06;11.90;99.90
23102;DHT22;11720;51.214;22.574;2023-05-16T00:25:32;11.90;99.90
23102;DHT22;11720;51.214;22.574;2023-05-16T00:27:58;11.90;99.90
23102;DHT22;11720;51.214;22.574;2023-05-16T00:30:23;11.80;99.90
23102;DHT22;11720;51.214;22.574;2023-05-16T00:32:49;11.80;99.90
23102;DHT22;11720;51.214;22.574;2023-05-16T00:35:14;11.80;99.90
23102;DHT22;11720;51.214;22.574;2023-05-16T00:37:40;11.80;99.90
23102;DHT22;11720;51.214;22.574;2023-05-16T00:40:06;11.70;99.90
23102;DHT22;11720;51.214;22.574;2023-05-16T00:42:32;11.70;99.90
23102;DHT22;11720;51.214;22.574;2023-05-16T00:44:58;11.70;99.90
23102;DHT22;11720;51.214;22.574;2023-05-16T00:47:24;11.70;99.90
23102;DHT22;11720;51.214;22.574;2023-05-16T00:49:49;11.60;99.90
23102;DHT22;11720;51.214;22.574;2023-05-16T00:52:15;11.60;99.90
23102;DHT22;11720;51.214;22.574;2023-05-16T00:54:41;11.50;99.90
23102;DHT22;11720;51.214;22.574;2023-05-16T00:57:07;11.50;99.90
23102;DHT22;11720;51.214;22.574;2023-05-16T00:59:32;11.50;99.90
23102;DHT22;11720;51.214;22.574;2023-05-16T01:01:58;11.50;99.90
23102;DHT22;11720;51.214;22.574;2023-05-16T01:04:24;11.40;99.90
23102;DHT22;11720;51.214;22.574;2023-05-16T01:06:51;11.40;99.90
23102;DHT22;11720;51.214;22.574;2023-05-16T01:09:17;11.40;99.90
23102;DHT22;11720;51.214;22.574;2023-05-16T01:11:56;11.30;99.90
23102;DHT22;11720;51.214;22.574;2023-05-16T01:20:25;11.30;99.90
23102;DHT22;11720;51.214;22.574;2023-05-16T01:28:10;11.20;99.90
23102;DHT22;11720;51.214;22.574;2023-05-16T01:30:39;11.20;99.90
23102;DHT22;11720;51.214;22.574;2023-05-16T01:33:09;11.20;99.90
23102;DHT22;11720;51.214;22.574;2023-05-16T01:36:24;11.20;99.90
23102;DHT22;11720;51.214;22.574;2023-05-16T01:38:35;11.20;99.90
23102;DHT22;11720;51.214;22.574;2023-05-16T01:41:20;11.10;99.90
23102;DHT22;11720;51.214;22.574;2023-05-16T01:43:51;11.10;99.90
23102;DHT22;11720;51.214;22.574;2023-05-16T01:46:24;11.10;99.90
23102;DHT22;11720;51.214;22.574;2023-05-16T01:49:14;11.00;99.90
23102;DHT22;11720;51.214;22.574;2023-05-16T01:51:44;11.00;99.90
23102;DHT22;11720;51.214;22.574;2023-05-16T01:54:17;10.90;99.90
23102;DHT22;11720;51.214;22.574;2023-05-16T01:56:50;10.90;99.90
23102;DHT22;11720;51.214;22.574;2023-05-16T01:59:17;10.90;99.90
23102;DHT22;11720;51.214;22.574;2023-05-16T02:01:43;10.90;99.90
23102;DHT22;11720;51.214;22.574;2023-05-16T02:04:09;10.80;99.90
23102;DHT22;11720;51.214;22.574;2023-05-16T02:06:34;10.80;99.90
23102;DHT22;11720;51.214;22.574;2023-05-16T02:11:26;10.80;99.90
23102;DHT22;11720;51.214;22.574;2023-05-16T02:13:52;10.80;99.90
23102;DHT22;11720;51.214;22.574;2023-05-16T02:16:17;10.70;99.90
23102;DHT22;11720;51.214;22.574;2023-05-16T02:18:43;10.70;99.90
23102;DHT22;11720;51.214;22.574;2023-05-16T02:21:10;10.70;99.90
23102;DHT22;11720;51.214;22.574;2023-05-16T02:23:35;10.70;99.90
23102;DHT22;11720;51.214;22.574;2023-05-16T02:26:01;10.60;99.90
23102;DHT22;11720;51.214;22.574;2023-05-16T02:28:27;10.60;99.90
23102;DHT22;11720;51.214;22.574;2023-05-16T02:30:57;10.60;99.90
23102;DHT22;11720;51.214;22.574;2023-05-16T02:33:23;10.60;99.90
23102;DHT22;11720;51.214;22.574;2023-05-16T02:35:49;10.60;99.90
23102;DHT22;11720;51.214;22.574;2023-05-16T02:38:14;10.60;99.90
23102;DHT22;11720;51.214;22.574;2023-05-16T02:40:42;10.50;99.90
23102;DHT22;11720;51.214;22.574;2023-05-16T02:43:07;10.50;99.90
23102;DHT22;11720;51.214;22.574;2023-05-16T02:45:33;10.50;99.90
23102;DHT22;11720;51.214;22.574;2023-05-16T02:47:59;10.50;99.90
23102;DHT22;11720;51.214;22.574;2023-05-16T02:50:24;10.50;99.90
23102;DHT22;11720;51.214;22.574;2023-05-16T02:52:50;10.50;99.90
23102;DHT22;11720;51.214;22.574;2023-05-16T02:55:16;10.50;99.90
23102;DHT22;11720;51.214;22.574;2023-05-16T02:57:42;10.50;99.90
23102;DHT22;11720;51.214;22.574;2023-05-16T03:00:08;10.50;99.90
23102;DHT22;11720;51.214;22.574;2023-05-16T03:02:36;10.50;99.90
23102;DHT22;11720;51.214;22.574;2023-05-16T03:05:01;10.50;99.90
23102;DHT22;11720;51.214;22.574;2023-05-16T03:07:27;10.50;99.90
23102;DHT22;11720;51.214;22.574;2023-05-16T03:09:52;10.50;99.90
23102;DHT22;11720;51.214;22.574;2023-05-16T03:12:18;10.50;99.90
23102;DHT22;11720;51.214;22.574;2023-05-16T03:14:44;10.50;99.90
23102;DHT22;11720;51.214;22.574;2023-05-16T03:17:09;10.40;99.90
23102;DHT22;11720;51.214;22.574;2023-05-16T03:19:35;10.40;99.90
23102;DHT22;11720;51.214;22.574;2023-05-16T03:22:01;10.40;99.90
23102;DHT22;11720;51.214;22.574;2023-05-16T03:24:26;10.40;99.90
23102;DHT22;11720;51.214;22.574;2023-05-16T03:26:52;10.40;99.90
23102;DHT22;11720;51.214;22.574;2023-05-16T03:29:18;10.40;99.90
23102;DHT22;11720;51.214;22.574;2023-05-16T03:31:43;10.40;99.90
23102;DHT22;11720;51.214;22.574;2023-05-16T03:34:09;10.50;99.90
23102;DHT22;11720;51.214;22.574;2023-05-16T03:36:35;10.50;99.90
23102;DHT22;11720;51.214;22.574;2023-05-16T03:39:02;10.50;99.90
23102;DHT22;11720;51.214;22.574;2023-05-16T03:41:28;10.50;99.90
23102;DHT22;11720;51.214;22.574;2023-05-16T03:43:53;10.60;99.90
23102;DHT22;11720;51.214;22.574;2023-05-16T03:46:19;10.60;99.90
23102;DHT22;11720;51.214;22.574;2023-05-16T03:48:45;10.70;99.90
23102;DHT22;11720;51.214;22.574;2023-05-16T03:51:10;10.80;99.90
23102;DHT22;11720;51.214;22.574;2023-05-16T03:53:36;10.80;99.90
23102;DHT22;11720;51.214;22.574;2023-05-16T03:56:02;10.80;99.90
23102;DHT22;11720;51.214;22.574;2023-05-16T03:58:28;10.80;99.90
23102;DHT22;11720;51.214;22.574;2023-05-16T04:00:54;10.90;99.90
23102;DHT22;11720;51.214;22.574;2023-05-16T04:03:20;11.00;99.90
23102;DHT22;11720;51.214;22.574;2023-05-16T04:05:55;11.00;99.90
23102;DHT22;11720;51.214;22.574;2023-05-16T04:08:20;11.10;99.90
23102;DHT22;11720;51.214;22.574;2023-05-16T04:10:46;11.10;99.90
23102;DHT22;11720;51.214;22.574;2023-05-16T04:13:12;11.10;99.90
23102;DHT22;11720;51.214;22.574;2023-05-16T04:15:38;11.20;99.90
23102;DHT22;11720;51.214;22.574;2023-05-16T04:18:04;11.30;99.90
23102;DHT22;11720;51.214;22.574;2023-05-16T04:20:29;11.40;99.90
23102;DHT22;11720;51.214;22.574;2023-05-16T04:22:55;11.40;99.90
23102;DHT22;11720;51.214;22.574;2023-05-16T04:25:21;11.40;99.90
23102;DHT22;11720;51.214;22.574;2023-05-16T04:27:47;11.50;99.90
23102;DHT22;11720;51.214;22.574;2023-05-16T04:30:12;11.50;99.90
23102;DHT22;11720;51.214;22.574;2023-05-16T04:32:39;11.50;99.90
23102;DHT22;11720;51.214;22.574;2023-05-16T04:35:05;11.60;99.90
23102;DHT22;11720;51.214;22.574;2023-05-16T04:37:33;11.70;99.90
23102;DHT22;11720;51.214;22.574;2023-05-16T04:40:00;11.70;99.90
23102;DHT22;11720;51.214;22.574;2023-05-16T04:42:26;11.80;99.90
23102;DHT22;11720;51.214;22.574;2023-05-16T04:44:52;11.80;99.90
23102;DHT22;11720;51.214;22.574;2023-05-16T04:47:17;11.90;99.90
23102;DHT22;11720;51.214;22.574;2023-05-16T04:49:43;12.00;99.90
23102;DHT22;11720;51.214;22.574;2023-05-16T04:52:09;12.10;99.90
23102;DHT22;11720;51.214;22.574;2023-05-16T04:54:37;12.20;99.90
23102;DHT22;11720;51.214;22.574;2023-05-16T04:57:03;12.20;99.90
23102;DHT22;11720;51.214;22.574;2023-05-16T04:59:29;12.20;99.90
23102;DHT22;11720;51.214;22.574;2023-05-16T05:01:54;12.20;99.90
23102;DHT22;11720;51.214;22.574;2023-05-16T05:04:20;12.30;99.90
23102;DHT22;11720;51.214;22.574;2023-05-16T05:06:47;12.30;99.90
23102;DHT22;11720;51.214;22.574;2023-05-16T05:09:13;12.40;99.90
23102;DHT22;11720;51.214;22.574;2023-05-16T05:11:39;12.40;99.90
23102;DHT22;11720;51.214;22.574;2023-05-16T05:14:05;12.50;99.90
23102;DHT22;11720;51.214;22.574;2023-05-16T05:16:30;12.60;99.90
23102;DHT22;11720;51.214;22.574;2023-05-16T05:18:57;12.80;99.90
23102;DHT22;11720;51.214;22.574;2023-05-16T05:21:23;12.80;99.90
23102;DHT22;11720;51.214;22.574;2023-05-16T05:23:50;12.90;99.90
23102;DHT22;11720;51.214;22.574;2023-05-16T05:26:16;13.00;99.90
23102;DHT22;11720;51.214;22.574;2023-05-16T05:28:42;13.10;99.90
23102;DHT22;11720;51.214;22.574;2023-05-16T05:31:07;13.10;99.90
23102;DHT22;11720;51.214;22.574;2023-05-16T05:33:33;13.20;99.90
23102;DHT22;11720;51.214;22.574;2023-05-16T05:35:59;13.30;99.90
23102;DHT22;11720;51.214;22.574;2023-05-16T05:40:51;13.50;99.90
23102;DHT22;11720;51.214;22.574;2023-05-16T05:43:16;13.50;99.90
23102;DHT22;11720;51.214;22.574;2023-05-16T05:45:43;13.50;99.90
23102;DHT22;11720;51.214;22.574;2023-05-16T05:48:08;13.60;99.90
23102;DHT22;11720;51.214;22.574;2023-05-16T05:50:35;13.70;99.90
23102;DHT22;11720;51.214;22.574;2023-05-16T05:53:02;13.70;99.90
23102;DHT22;11720;51.214;22.574;2023-05-16T05:57:54;13.90;99.90
23102;DHT22;11720;51.214;22.574;2023-05-16T06:00:19;14.00;99.90
23102;DHT22;11720;51.214;22.574;2023-05-16T06:02:47;14.00;99.90
23102;DHT22;11720;51.214;22.574;2023-05-16T06:05:13;14.10;99.90
23102;DHT22;11720;51.214;22.574;2023-05-16T06:07:38;14.20;99.90
23102;DHT22;11720;51.214;22.574;2023-05-16T06:10:04;14.40;99.90
23102;DHT22;11720;51.214;22.574;2023-05-16T06:12:30;14.50;99.90
23102;DHT22;11720;51.214;22.574;2023-05-16T06:14:56;14.50;99.90
23102;DHT22;11720;51.214;22.574;2023-05-16T06:17:22;14.50;99.90
23102;DHT22;11720;51.214;22.574;2023-05-16T06:19:47;14.80;99.90
23102;DHT22;11720;51.214;22.574;2023-05-16T06:22:13;14.70;99.90
23102;DHT22;11720;51.214;22.574;2023-05-16T06:24:39;14.70;99.90
23102;DHT22;11720;51.214;22.574;2023-05-16T06:27:05;14.70;99.90
23102;DHT22;11720;51.214;22.574;2023-05-16T06:29:33;14.70;99.90
23102;DHT22;11720;51.214;22.574;2023-05-16T06:31:58;14.60;99.90
23102;DHT22;11720;51.214;22.574;2023-05-16T06:34:24;14.80;99.90
23102;DHT22;11720;51.214;22.574;2023-05-16T06:36:55;15.00;99.90
23102;DHT22;11720;51.214;22.574;2023-05-16T06:39:21;15.20;99.90
23102;DHT22;11720;51.214;22.574;2023-05-16T06:44:13;15.50;99.90
23102;DHT22;11720;51.214;22.574;2023-05-16T06:46:38;15.60;99.90
23102;DHT22;11720;51.214;22.574;2023-05-16T06:49:04;15.60;99.90
23102;DHT22;11720;51.214;22.574;2023-05-16T06:51:31;15.60;99.90
23102;DHT22;11720;51.214;22.574;2023-05-16T06:53:57;15.60;99.90
23102;DHT22;11720;51.214;22.574;2023-05-16T06:56:23;15.60;99.90
23102;DHT22;11720;51.214;22.574;2023-05-16T06:58:49;15.80;99.90
23102;DHT22;11720;51.214;22.574;2023-05-16T07:01:15;15.80;99.90
23102;DHT22;11720;51.214;22.574;2023-05-16T07:03:41;15.80;99.90
23102;DHT22;11720;51.214;22.574;2023-05-16T07:06:06;15.70;99.90
23102;DHT22;11720;51.214;22.574;2023-05-16T07:08:32;15.80;99.90
23102;DHT22;11720;51.214;22.574;2023-05-16T07:11:00;15.90;99.90
23102;DHT22;11720;51.214;22.574;2023-05-16T07:13:26;16.00;99.90
23102;DHT22;11720;51.214;22.574;2023-05-16T07:15:51;15.90;99.90
23102;DHT22;11720;51.214;22.574;2023-05-16T07:18:17;16.10;99.90
23102;DHT22;11720;51.214;22.574;2023-05-16T07:20:43;16.10;99.90
23102;DHT22;11720;51.214;22.574;2023-05-16T07:23:09;16.20;99.90
23102;DHT22;11720;51.214;22.574;2023-05-16T07:25:34;16.30;99.90
23102;DHT22;11720;51.214;22.574;2023-05-16T07:28:01;16.30;99.90
23102;DHT22;11720;51.214;22.574;2023-05-16T07:30:27;16.30;99.90
23102;DHT22;11720;51.214;22.574;2023-05-16T07:32:52;16.30;99.90
23102;DHT22;11720;51.214;22.574;2023-05-16T07:35:18;16.20;99.90
23102;DHT22;11720;51.214;22.574;2023-05-16T07:37:44;16.30;99.90
23102;DHT22;11720;51.214;22.574;2023-05-16T07:40:10;16.40;99.90
23102;DHT22;11720;51.214;22.574;2023-05-16T07:42:36;16.40;99.90
23102;DHT22;11720;51.214;22.574;2023-05-16T07:45:02;16.40;99.90
23102;DHT22;11720;51.214;22.574;2023-05-16T07:47:28;16.40;99.90
23102;DHT22;11720;51.214;22.574;2023-05-16T07:49:54;16.40;99.90
23102;DHT22;11720;51.214;22.574;2023-05-16T07:52:20;16.50;99.90
23102;DHT22;11720;51.214;22.574;2023-05-16T07:54:46;16.60;99.90
23102;DHT22;11720;51.214;22.574;2023-05-16T07:57:16;16.80;99.90
23102;DHT22;11720;51.214;22.574;2023-05-16T07:59:42;16.90;99.90
23102;DHT22;11720;51.214;22.574;2023-05-16T08:02:09;17.10;99.90
23102;DHT22;11720;51.214;22.574;2023-05-16T08:04:35;17.00;99.90
23102;DHT22;11720;51.214;22.574;2023-05-16T08:07:01;16.80;99.90
23102;DHT22;11720;51.214;22.574;2023-05-16T08:09:26;16.80;99.90
23102;DHT22;11720;51.214;22.574;2023-05-16T08:11:52;17.00;99.90
23102;DHT22;11720;51.214;22.574;2023-05-16T08:14:19;17.20;99.90
23102;DHT22;11720;51.214;22.574;2023-05-16T08:16:45;17.40;99.90
23102;DHT22;11720;51.214;22.574;2023-05-16T08:19:11;17.40;99.90
23102;DHT22;11720;51.214;22.574;2023-05-16T08:21:37;17.40;99.90
23102;DHT22;11720;51.214;22.574;2023-05-16T08:24:03;17.30;99.90
23102;DHT22;11720;51.214;22.574;2023-05-16T08:26:29;17.30;99.90
23102;DHT22;11720;51.214;22.574;2023-05-16T08:28:55;17.30;99.90
23102;DHT22;11720;51.214;22.574;2023-05-16T08:31:21;17.50;99.90
23102;DHT22;11720;51.214;22.574;2023-05-16T08:33:47;17.50;99.90
23102;DHT22;11720;51.214;22.574;2023-05-16T08:36:12;17.60;99.90
23102;DHT22;11720;51.214;22.574;2023-05-16T08:38:40;17.60;99.90
23102;DHT22;11720;51.214;22.574;2023-05-16T08:41:06;17.50;99.90
23102;DHT22;11720;51.214;22.574;2023-05-16T08:43:32;17.50;99.90
23102;DHT22;11720;51.214;22.574;2023-05-16T08:46:00;17.60;99.90
23102;DHT22;11720;51.214;22.574;2023-05-16T08:48:27;17.60;99.90
23102;DHT22;11720;51.214;22.574;2023-05-16T08:50:53;17.70;99.90
23102;DHT22;11720;51.214;22.574;2023-05-16T08:53:21;17.80;99.90
23102;DHT22;11720;51.214;22.574;2023-05-16T08:55:52;17.80;99.90
23102;DHT22;11720;51.214;22.574;2023-05-16T08:58:18;17.70;99.90
23102;DHT22;11720;51.214;22.574;2023-05-16T09:00:45;17.80;99.90
23102;DHT22;11720;51.214;22.574;2023-05-16T09:03:11;17.90;99.90
23102;DHT22;11720;51.214;22.574;2023-05-16T09:05:37;18.00;99.90
23102;DHT22;11720;51.214;22.574;2023-05-16T09:08:03;18.10;99.90
23102;DHT22;11720;51.214;22.574;2023-05-16T09:10:28;18.30;99.90
23102;DHT22;11720;51.214;22.574;2023-05-16T09:12:55;18.50;99.90
23102;DHT22;11720;51.214;22.574;2023-05-16T09:15:21;18.50;99.90
23102;DHT22;11720;51.214;22.574;2023-05-16T09:17:47;18.40;99.90
23102;DHT22;11720;51.214;22.574;2023-05-16T09:20:18;18.30;99.90
23102;DHT22;11720;51.214;22.574;2023-05-16T09:22:55;18.30;99.90
23102;DHT22;11720;51.214;22.574;2023-05-16T09:25:23;18.40;99.90
23102;DHT22;11720;51.214;22.574;2023-05-16T09:27:56;18.50;99.90
23102;DHT22;11720;51.214;22.574;2023-05-16T09:30:22;18.50;99.90
23102;DHT22;11720;51.214;22.574;2023-05-16T09:32:52;18.50;99.90
23102;DHT22;11720;51.214;22.574;2023-05-16T09:35:21;18.50;99.90
23102;DHT22;11720;51.214;22.574;2023-05-16T09:37:48;18.50;99.90
23102;DHT22;11720;51.214;22.574;2023-05-16T09:40:14;18.50;99.90
23102;DHT22;11720;51.214;22.574;2023-05-16T09:42:41;18.60;99.90
23102;DHT22;11720;51.214;22.574;2023-05-16T09:45:11;18.60;99.90
23102;DHT22;11720;51.214;22.574;2023-05-16T09:47:37;18.70;99.90
23102;DHT22;11720;51.214;22.574;2023-05-16T09:50:10;18.80;99.90
23102;DHT22;11720;51.214;22.574;2023-05-16T09:52:37;18.80;99.90
23102;DHT22;11720;51.214;22.574;2023-05-16T09:55:06;18.80;99.90
23102;DHT22;11720;51.214;22.574;2023-05-16T09:57:32;18.90;99.90
23102;DHT22;11720;51.214;22.574;2023-05-16T10:00:06;19.00;99.90
23102;DHT22;11720;51.214;22.574;2023-05-16T10:02:36;19.20;99.90
23102;DHT22;11720;51.214;22.574;2023-05-16T10:05:02;19.30;99.90
23102;DHT22;11720;51.214;22.574;2023-05-16T10:07:30;19.40;99.90
23102;DHT22;11720;51.214;22.574;2023-05-16T10:10:06;19.50;99.40
23102;DHT22;11720;51.214;22.574;2023-05-16T10:12:33;19.60;97.80
23102;DHT22;11720;51.214;22.574;2023-05-16T10:15:00;19.40;98.10
23102;DHT22;11720;51.214;22.574;2023-05-16T10:17:30;19.30;99.30
23102;DHT22;11720;51.214;22.574;2023-05-16T10:19:57;19.40;98.60
23102;DHT22;11720;51.214;22.574;2023-05-16T10:22:26;19.50;99.70
23102;DHT22;11720;51.214;22.574;2023-05-16T10:25:08;19.60;99.60
23102;DHT22;11720;51.214;22.574;2023-05-16T10:27:37;19.60;98.50
23102;DHT22;11720;51.214;22.574;2023-05-16T10:30:05;19.50;97.60
23102;DHT22;11720;51.214;22.574;2023-05-16T10:32:32;19.60;97.60
23102;DHT22;11720;51.214;22.574;2023-05-16T10:34:59;19.70;96.90
23102;DHT22;11720;51.214;22.574;2023-05-16T10:37:28;19.90;97.90
23102;DHT22;11720;51.214;22.574;2023-05-16T10:39:54;19.80;96.30
23102;DHT22;11720;51.214;22.574;2023-05-16T10:42:20;19.70;96.60
23102;DHT22;11720;51.214;22.574;2023-05-16T10:44:46;19.70;95.70
23102;DHT22;11720;51.214;22.574;2023-05-16T10:47:12;19.80;94.40
23102;DHT22;11720;51.214;22.574;2023-05-16T10:49:42;19.90;94.00
23102;DHT22;11720;51.214;22.574;2023-05-16T10:52:10;19.90;94.70
23102;DHT22;11720;51.214;22.574;2023-05-16T10:54:42;19.90;95.40
23102;DHT22;11720;51.214;22.574;2023-05-16T10:57:19;19.70;92.00
23102;DHT22;11720;51.214;22.574;2023-05-16T10:59:48;19.70;93.70
23102;DHT22;11720;51.214;22.574;2023-05-16T11:04:51;19.80;93.50
23102;DHT22;11720;51.214;22.574;2023-05-16T11:07:19;19.80;93.70
23102;DHT22;11720;51.214;22.574;2023-05-16T11:09:52;20.00;93.90
23102;DHT22;11720;51.214;22.574;2023-05-16T11:12:35;20.40;94.30
23102;DHT22;11720;51.214;22.574;2023-05-16T11:15:17;20.50;91.70
23102;DHT22;11720;51.214;22.574;2023-05-16T11:17:43;20.90;96.20
23102;DHT22;11720;51.214;22.574;2023-05-16T11:20:24;21.20;87.60
23102;DHT22;11720;51.214;22.574;2023-05-16T11:22:51;20.80;87.40
23102;DHT22;11720;51.214;22.574;2023-05-16T11:25:36;20.80;87.70
23102;DHT22;11720;51.214;22.574;2023-05-16T11:28:05;20.90;90.00
23102;DHT22;11720;51.214;22.574;2023-05-16T11:30:32;20.60;85.50
23102;DHT22;11720;51.214;22.574;2023-05-16T11:32:58;20.40;87.00
23102;DHT22;11720;51.214;22.574;2023-05-16T11:35:24;20.20;85.40
23102;DHT22;11720;51.214;22.574;2023-05-16T11:37:50;20.10;86.20
23102;DHT22;11720;51.214;22.574;2023-05-16T11:40:16;20.30;89.10
23102;DHT22;11720;51.214;22.574;2023-05-16T11:42:44;20.70;88.50
23102;DHT22;11720;51.214;22.574;2023-05-16T11:45:15;20.90;86.50
23102;DHT22;11720;51.214;22.574;2023-05-16T11:47:43;21.10;85.00
23102;DHT22;11720;51.214;22.574;2023-05-16T11:50:13;21.10;83.40
23102;DHT22;11720;51.214;22.574;2023-05-16T11:52:43;21.00;83.50
23102;DHT22;11720;51.214;22.574;2023-05-16T11:55:10;20.90;85.40
23102;DHT22;11720;51.214;22.574;2023-05-16T11:57:39;20.90;81.80
23102;DHT22;11720;51.214;22.574;2023-05-16T12:00:20;20.80;80.50
23102;DHT22;11720;51.214;22.574;2023-05-16T12:02:47;20.90;82.50
23102;DHT22;11720;51.214;22.574;2023-05-16T12:05:14;21.00;80.20
23102;DHT22;11720;51.214;22.574;2023-05-16T12:07:42;20.90;79.90
23102;DHT22;11720;51.214;22.574;2023-05-16T12:10:10;21.20;76.30
23102;DHT22;11720;51.214;22.574;2023-05-16T12:12:38;21.40;78.50
23102;DHT22;11720;51.214;22.574;2023-05-16T12:15:06;21.70;76.80
23102;DHT22;11720;51.214;22.574;2023-05-16T12:17:37;21.70;76.50
23102;DHT22;11720;51.214;22.574;2023-05-16T12:20:04;21.60;77.20
23102;DHT22;11720;51.214;22.574;2023-05-16T12:22:41;21.90;77.30
23102;DHT22;11720;51.214;22.574;2023-05-16T12:25:24;21.70;75.50
23102;DHT22;11720;51.214;22.574;2023-05-16T12:27:55;21.60;74.60
23102;DHT22;11720;51.214;22.574;2023-05-16T12:30:22;21.70;78.50
23102;DHT22;11720;51.214;22.574;2023-05-16T12:32:58;21.60;77.10
23102;DHT22;11720;51.214;22.574;2023-05-16T12:35:32;21.50;76.30
23102;DHT22;11720;51.214;22.574;2023-05-16T12:37:58;21.50;78.60
23102;DHT22;11720;51.214;22.574;2023-05-16T12:40:28;21.30;79.00
23102;DHT22;11720;51.214;22.574;2023-05-16T12:42:54;21.20;82.50
23102;DHT22;11720;51.214;22.574;2023-05-16T12:45:21;21.30;82.10
23102;DHT22;11720;51.214;22.574;2023-05-16T12:47:48;21.30;80.40
23102;DHT22;11720;51.214;22.574;2023-05-16T12:50:14;21.40;79.30
23102;DHT22;11720;51.214;22.574;2023-05-16T12:52:53;21.50;79.30
23102;DHT22;11720;51.214;22.574;2023-05-16T12:55:21;21.80;80.30
23102;DHT22;11720;51.214;22.574;2023-05-16T12:57:48;22.10;79.50
23102;DHT22;11720;51.214;22.574;2023-05-16T13:00:16;22.20;78.10
23102;DHT22;11720;51.214;22.574;2023-05-16T13:02:43;22.10;79.70
23102;DHT22;11720;51.214;22.574;2023-05-16T13:05:10;22.30;80.20
23102;DHT22;11720;51.214;22.574;2023-05-16T13:07:36;22.40;77.90
23102;DHT22;11720;51.214;22.574;2023-05-16T13:10:08;22.70;78.80
23102;DHT22;11720;51.214;22.574;2023-05-16T13:12:35;22.70;74.30
23102;DHT22;11720;51.214;22.574;2023-05-16T13:15:01;22.40;72.80
23102;DHT22;11720;51.214;22.574;2023-05-16T13:17:27;22.20;73.40
23102;DHT22;11720;51.214;22.574;2023-05-16T13:19:55;22.30;76.10
23102;DHT22;11720;51.214;22.574;2023-05-16T13:22:20;22.30;74.00
23102;DHT22;11720;51.214;22.574;2023-05-16T13:24:46;22.30;74.60
23102;DHT22;11720;51.214;22.574;2023-05-16T13:27:15;22.20;74.60
23102;DHT22;11720;51.214;22.574;2023-05-16T13:29:42;22.20;75.40
23102;DHT22;11720;51.214;22.574;2023-05-16T13:32:08;22.10;74.70
23102;DHT22;11720;51.214;22.574;2023-05-16T13:34:34;22.10;75.30
23102;DHT22;11720;51.214;22.574;2023-05-16T13:37:00;22.00;76.50
23102;DHT22;11720;51.214;22.574;2023-05-16T13:39:26;22.30;77.50
23102;DHT22;11720;51.214;22.574;2023-05-16T13:41:52;22.30;75.00
23102;DHT22;11720;51.214;22.574;2023-05-16T13:44:18;22.30;77.00
23102;DHT22;11720;51.214;22.574;2023-05-16T13:46:44;22.30;74.70
23102;DHT22;11720;51.214;22.574;2023-05-16T13:49:10;22.30;76.30
23102;DHT22;11720;51.214;22.574;2023-05-16T13:51:36;22.40;76.00
23102;DHT22;11720;51.214;22.574;2023-05-16T13:54:01;22.20;76.20
23102;DHT22;11720;51.214;22.574;2023-05-16T13:56:27;22.30;77.20
23102;DHT22;11720;51.214;22.574;2023-05-16T13:58:53;22.30;76.30
23102;DHT22;11720;51.214;22.574;2023-05-16T14:01:18;22.20;76.50
23102;DHT22;11720;51.214;22.574;2023-05-16T14:03:45;21.70;76.70
23102;DHT22;11720;51.214;22.574;2023-05-16T14:06:12;21.70;80.40
23102;DHT22;11720;51.214;22.574;2023-05-16T14:08:37;21.60;79.10
23102;DHT22;11720;51.214;22.574;2023-05-16T14:11:04;21.60;79.20
23102;DHT22;11720;51.214;22.574;2023-05-16T14:15:56;21.70;75.90
23102;DHT22;11720;51.214;22.574;2023-05-16T14:18:22;21.60;77.70
23102;DHT22;11720;51.214;22.574;2023-05-16T14:20:47;21.50;79.10
23102;DHT22;11720;51.214;22.574;2023-05-16T14:23:16;21.50;78.60
23102;DHT22;11720;51.214;22.574;2023-05-16T14:25:42;21.40;76.80
23102;DHT22;11720;51.214;22.574;2023-05-16T14:28:08;21.40;77.70
23102;DHT22;11720;51.214;22.574;2023-05-16T14:30:33;21.40;77.70
23102;DHT22;11720;51.214;22.574;2023-05-16T14:32:59;21.40;77.80
23102;DHT22;11720;51.214;22.574;2023-05-16T14:35:25;21.40;78.40
23102;DHT22;11720;51.214;22.574;2023-05-16T14:37:51;21.30;77.40
23102;DHT22;11720;51.214;22.574;2023-05-16T14:40:16;21.30;79.90
23102;DHT22;11720;51.214;22.574;2023-05-16T14:42:42;21.30;78.10
23102;DHT22;11720;51.214;22.574;2023-05-16T14:45:08;21.10;78.40
23102;DHT22;11720;51.214;22.574;2023-05-16T14:47:35;21.10;78.60
23102;DHT22;11720;51.214;22.574;2023-05-16T14:50:00;21.20;80.80
23102;DHT22;11720;51.214;22.574;2023-05-16T14:52:26;21.10;78.50
23102;DHT22;11720;51.214;22.574;2023-05-16T14:54:52;21.00;79.50
23102;DHT22;11720;51.214;22.574;2023-05-16T14:57:17;20.90;78.10
23102;DHT22;11720;51.214;22.574;2023-05-16T14:59:43;20.80;77.80
23102;DHT22;11720;51.214;22.574;2023-05-16T15:02:09;20.60;78.60
23102;DHT22;11720;51.214;22.574;2023-05-16T15:04:34;20.60;79.00
23102;DHT22;11720;51.214;22.574;2023-05-16T15:07:00;20.60;81.10
23102;DHT22;11720;51.214;22.574;2023-05-16T15:09:26;20.60;78.50
23102;DHT22;11720;51.214;22.574;2023-05-16T15:11:51;20.60;78.00
23102;DHT22;11720;51.214;22.574;2023-05-16T15:14:17;20.70;81.10
23102;DHT22;11720;51.214;22.574;2023-05-16T15:16:43;20.70;79.30
23102;DHT22;11720;51.214;22.574;2023-05-16T15:19:08;20.70;80.30
23102;DHT22;11720;51.214;22.574;2023-05-16T15:21:34;20.70;78.70
23102;DHT22;11720;51.214;22.574;2023-05-16T15:24:00;20.60;78.60
23102;DHT22;11720;51.214;22.574;2023-05-16T15:26:27;20.40;78.90
23102;DHT22;11720;51.214;22.574;2023-05-16T15:28:53;20.40;79.80
23102;DHT22;11720;51.214;22.574;2023-05-16T15:31:20;20.40;80.70
23102;DHT22;11720;51.214;22.574;2023-05-16T15:33:46;20.40;79.70
23102;DHT22;11720;51.214;22.574;2023-05-16T15:36:12;20.30;79.40
23102;DHT22;11720;51.214;22.574;2023-05-16T15:41:09;20.30;79.10
23102;DHT22;11720;51.214;22.574;2023-05-16T15:43:35;20.30;80.50
23102;DHT22;11720;51.214;22.574;2023-05-16T15:46:00;20.30;81.40